createdAt,value
2018-07-05T00:02:03.895Z,10.13
2018-07-05T00:07:18.373Z,9.10
2018-07-05T00:12:32.885Z,10.07
2018-07-05T00:17:47.449Z,10.93
2018-07-05T00:23:02.025Z,10.40
2018-07-05T00:28:16.709Z,9.70
2018-07-05T00:33:31.393Z,9.80
2018-07-05T00:38:45.881Z,10.10
2018-07-05T00:44:00.465Z,10.00
2018-07-05T00:49:14.897Z,10.60
2018-07-05T00:54:29.235Z,9.43
2018-07-05T00:59:43.862Z,11.70
2018-07-05T01:04:58.369Z,11.47
2018-07-05T01:10:12.848Z,11.93
2018-07-05T01:15:27.145Z,11.47
2018-07-05T01:20:41.769Z,11.43
2018-07-05T01:25:56.377Z,12.90
2018-07-05T01:31:11.072Z,12.50
2018-07-05T01:36:25.676Z,12.50
2018-07-05T01:41:40.162Z,13.20
2018-07-05T01:46:54.753Z,12.83
2018-07-05T01:52:12.952Z,13.67
2018-07-05T01:57:27.457Z,12.73
2018-07-05T02:02:42.017Z,12.20
2018-07-05T02:07:56.514Z,13.10
2018-07-05T02:13:11.177Z,12.90
2018-07-05T02:18:25.666Z,13.97
2018-07-05T02:23:40.345Z,12.17
2018-07-05T02:28:54.684Z,14.47
2018-07-05T02:34:09.248Z,13.13
2018-07-05T02:39:29.341Z,13.13
2018-07-05T02:44:43.975Z,13.17
2018-07-05T02:49:58.529Z,12.27
2018-07-05T02:55:13.121Z,13.17
2018-07-05T03:00:27.685Z,13.53
2018-07-05T03:05:42.192Z,14.20
2018-07-05T03:10:56.928Z,12.63
2018-07-05T03:16:11.469Z,16.37
2018-07-05T03:21:26.034Z,14.73
2018-07-05T03:26:40.597Z,16.40
2018-07-05T03:31:55.169Z,14.80
2018-07-05T03:37:09.881Z,13.93
2018-07-05T03:42:24.177Z,14.57
2018-07-05T03:47:38.612Z,15.07
2018-07-05T03:52:53.065Z,15.90
2018-07-05T03:58:07.612Z,15.87
2018-07-05T04:03:22.176Z,14.27
2018-07-05T04:08:36.756Z,14.80
2018-07-05T04:13:51.237Z,14.63
2018-07-05T04:19:05.874Z,13.77
2018-07-05T04:24:20.373Z,15.63
2018-07-05T04:29:35.063Z,14.40
2018-07-05T04:34:49.501Z,15.37
2018-07-05T04:40:03.915Z,14.43
2018-07-05T04:45:18.541Z,15.13
2018-07-05T04:50:33.149Z,15.80
2018-07-05T04:55:47.697Z,15.07
2018-07-05T05:01:02.208Z,15.47
2018-07-05T05:06:16.544Z,15.83
2018-07-05T05:11:31.094Z,17.73
2018-07-05T05:16:45.505Z,17.17
2018-07-05T05:21:59.773Z,16.83
2018-07-05T05:27:14.329Z,18.67
2018-07-05T05:32:28.701Z,20.30
2018-07-05T05:37:43.381Z,20.13
2018-07-05T05:42:57.853Z,19.63
2018-07-05T05:48:12.292Z,22.10
2018-07-05T05:53:26.618Z,20.43
2018-07-05T05:58:41.080Z,22.63
2018-07-05T06:03:55.545Z,22.37
2018-07-05T06:09:10.115Z,22.47
2018-07-05T06:14:24.721Z,23.73
2018-07-05T06:19:39.179Z,26.10
2018-07-05T06:24:53.815Z,26.13
2018-07-05T06:30:08.449Z,26.20
2018-07-05T06:35:22.986Z,25.47
2018-07-05T06:40:37.640Z,26.70
2018-07-05T06:45:52.051Z,27.77
2018-07-05T06:51:07.093Z,25.67
2018-07-05T06:56:21.425Z,30.00
2018-07-05T07:01:35.922Z,28.00
2018-07-05T07:06:50.440Z,31.23
2018-07-05T07:12:04.989Z,31.77
2018-07-05T07:17:19.545Z,31.50
2018-07-05T07:22:34.082Z,29.13
2018-07-05T07:27:48.573Z,28.37
2018-07-05T07:33:03.755Z,23.10
2018-07-05T07:38:18.290Z,24.23
2018-07-05T07:43:20.449Z,20.13
2018-07-05T07:48:22.625Z,18.67
2018-07-05T07:53:24.769Z,13.20
2018-07-05T07:58:26.929Z,12.33
2018-07-05T08:03:29.073Z,10.17
2018-07-05T08:08:31.232Z,11.30
2018-07-05T08:13:33.381Z,9.27
2018-07-05T08:18:35.533Z,10.57
2018-07-05T08:23:37.681Z,7.93
2018-07-05T08:28:39.829Z,9.17
2018-07-05T08:33:41.981Z,8.73
2018-07-05T08:38:44.121Z,8.90
2018-07-05T08:43:46.265Z,8.63
2018-07-05T08:48:48.408Z,7.90
2018-07-05T08:53:50.553Z,8.03
2018-07-05T08:58:52.788Z,6.80
2018-07-05T09:03:54.935Z,6.50
2018-07-05T09:08:57.088Z,5.87
2018-07-05T09:13:59.321Z,7.00
2018-07-05T09:19:01.552Z,6.57
2018-07-05T09:24:03.690Z,5.43
2018-07-05T09:29:05.937Z,4.53
2018-07-05T09:34:08.081Z,6.50
2018-07-05T09:39:10.233Z,5.20
2018-07-05T09:44:12.375Z,4.73
2018-07-05T09:49:14.516Z,4.13
2018-07-05T09:54:16.664Z,3.83
2018-07-05T09:59:18.823Z,3.80
2018-07-05T10:04:21.001Z,3.40
2018-07-05T10:09:23.154Z,4.63
2018-07-05T10:14:25.305Z,4.50
2018-07-05T10:19:27.469Z,4.90
2018-07-05T10:24:29.604Z,5.27
2018-07-05T10:29:44.352Z,3.97
2018-07-05T10:34:46.496Z,5.30
2018-07-05T10:40:01.013Z,4.63
2018-07-05T10:45:16.348Z,4.40
2018-07-05T10:50:30.806Z,5.03
2018-07-05T10:55:45.263Z,5.30
2018-07-05T11:00:59.717Z,5.20
2018-07-05T11:06:14.313Z,4.20
2018-07-05T11:11:28.837Z,5.13
2018-07-05T11:16:43.509Z,4.73
2018-07-05T11:21:58.121Z,4.77
2018-07-05T11:27:12.620Z,8.40
2018-07-05T11:32:27.881Z,5.37
2018-07-05T11:37:42.248Z,5.60
2018-07-05T11:42:56.721Z,6.77
2018-07-05T11:48:11.282Z,7.37
2018-07-05T11:53:25.813Z,5.70
2018-07-05T11:58:40.218Z,5.43
2018-07-05T12:03:54.686Z,8.47
2018-07-05T12:09:09.681Z,5.60
2018-07-05T12:14:24.320Z,6.00
2018-07-05T12:19:38.786Z,6.50
2018-07-05T12:24:53.333Z,4.70
2018-07-05T12:30:07.846Z,5.20
2018-07-05T12:35:22.261Z,5.07
2018-07-05T12:40:36.685Z,4.97
2018-07-05T12:45:51.070Z,4.30
2018-07-05T12:51:05.652Z,5.63
2018-07-05T12:56:20.246Z,6.00
2018-07-05T13:01:34.846Z,5.17
2018-07-05T13:06:49.254Z,5.20
2018-07-05T13:12:03.766Z,4.87
2018-07-05T13:17:18.059Z,4.57
2018-07-05T13:22:32.782Z,4.73
2018-07-05T13:27:47.149Z,4.70
2018-07-05T13:33:02.964Z,4.53
2018-07-05T13:38:17.912Z,5.07
2018-07-05T13:43:32.370Z,3.77
2018-07-05T13:48:46.818Z,4.00
2018-07-05T13:54:01.273Z,4.27
2018-07-05T13:59:15.809Z,3.53
2018-07-05T14:04:30.434Z,3.40
2018-07-05T14:09:45.057Z,4.07
2018-07-05T14:14:59.801Z,3.70
2018-07-05T14:20:15.088Z,3.20
2018-07-05T14:25:29.435Z,3.93
2018-07-05T14:30:44.004Z,3.40
2018-07-05T14:35:58.506Z,3.57
2018-07-05T14:41:13.056Z,3.77
2018-07-05T14:46:27.537Z,3.17
2018-07-05T14:51:41.886Z,3.17
2018-07-05T14:56:56.477Z,3.83
2018-07-05T15:02:11.053Z,3.20
2018-07-05T15:07:25.604Z,2.80
2018-07-05T15:12:40.370Z,2.93
2018-07-05T15:17:54.618Z,2.90
2018-07-05T15:23:09.137Z,2.60
2018-07-05T15:28:23.617Z,2.80
2018-07-05T15:33:38.105Z,2.83
2018-07-05T15:38:52.759Z,3.00
2018-07-05T15:44:07.337Z,3.60
2018-07-05T15:49:21.884Z,2.50
2018-07-05T15:54:36.408Z,2.87
2018-07-05T15:59:50.794Z,3.03
2018-07-05T16:05:05.309Z,2.80
2018-07-05T16:10:19.860Z,2.40
2018-07-05T16:15:34.236Z,2.87
2018-07-05T16:20:49.088Z,2.40
2018-07-05T16:26:04.670Z,2.67
2018-07-05T16:31:19.232Z,2.33
2018-07-05T16:36:33.662Z,1.90
2018-07-05T16:41:48.249Z,2.03
2018-07-05T16:47:02.696Z,2.10
2018-07-05T16:52:17.393Z,1.50
2018-07-05T16:57:31.845Z,1.70
2018-07-05T17:02:46.339Z,2.23
2018-07-05T17:08:00.856Z,1.80
2018-07-05T17:13:15.441Z,1.57
2018-07-05T17:18:29.921Z,1.40
2018-07-05T17:23:45.268Z,1.67
2018-07-05T17:28:59.653Z,1.77
2018-07-05T17:34:14.102Z,2.17
2018-07-05T17:39:28.709Z,1.80
2018-07-05T17:44:43.196Z,1.80
2018-07-05T17:49:57.730Z,2.10
2018-07-05T17:55:12.304Z,1.93
2018-07-05T18:00:20.881Z,2.00
2018-07-05T18:05:35.344Z,1.80
2018-07-05T18:10:49.802Z,2.00
2018-07-05T18:16:04.521Z,2.40
2018-07-05T18:21:19.051Z,1.83
2018-07-05T18:26:33.615Z,2.00
2018-07-05T18:31:47.898Z,1.73
2018-07-05T18:37:02.493Z,2.00
2018-07-05T18:42:16.949Z,2.43
2018-07-05T18:47:31.396Z,2.07
2018-07-05T18:52:46.041Z,1.70
2018-07-05T18:58:03.442Z,1.90
2018-07-05T19:03:18.756Z,1.53
2018-07-05T19:08:33.520Z,1.50
2018-07-05T19:13:49.817Z,1.30
2018-07-05T19:19:05.638Z,1.97
2018-07-05T19:24:20.202Z,1.43
2018-07-05T19:29:34.801Z,1.60
2018-07-05T19:34:49.300Z,1.57
2018-07-05T19:40:03.865Z,2.40
2018-07-05T19:45:18.330Z,1.90
2018-07-05T19:50:32.860Z,2.07
2018-07-05T19:55:47.191Z,2.60
2018-07-05T20:01:01.646Z,2.50
2018-07-05T20:06:16.244Z,2.50
2018-07-05T20:11:30.829Z,2.90
2018-07-05T20:16:45.268Z,2.30
2018-07-05T20:22:00.628Z,2.40
2018-07-05T20:27:15.097Z,2.47
2018-07-05T20:32:29.557Z,2.50
2018-07-05T20:37:43.972Z,2.37
2018-07-05T20:42:58.448Z,2.40
2018-07-05T20:48:13.113Z,2.60
2018-07-05T20:53:27.529Z,2.40
2018-07-05T20:58:41.821Z,2.13
2018-07-05T21:03:56.437Z,2.60
2018-07-05T21:09:10.851Z,2.47
2018-07-05T21:14:25.317Z,2.70
2018-07-05T21:19:39.888Z,2.47
2018-07-05T21:24:54.465Z,2.77
2018-07-05T21:30:08.885Z,2.93
2018-07-05T21:35:23.301Z,2.53
2018-07-05T21:40:37.824Z,2.57
2018-07-05T21:45:52.488Z,2.30
2018-07-05T21:51:06.916Z,2.53
2018-07-05T21:56:21.361Z,3.60
2018-07-05T22:01:35.802Z,2.20
2018-07-05T22:06:50.350Z,2.60
2018-07-05T22:12:04.825Z,2.30
2018-07-05T22:17:24.761Z,2.23
2018-07-05T22:22:44.751Z,2.00
2018-07-05T22:28:04.573Z,2.10
2018-07-05T22:33:19.064Z,2.40
2018-07-05T22:38:33.540Z,2.10
2018-07-05T22:43:48.026Z,2.00
2018-07-05T22:49:02.572Z,2.20
2018-07-05T22:54:17.071Z,2.20
2018-07-05T22:59:31.508Z,2.40
2018-07-05T23:04:46.159Z,2.20
2018-07-05T23:10:00.689Z,2.30
2018-07-05T23:15:15.004Z,1.97
2018-07-05T23:20:29.584Z,2.10
2018-07-05T23:25:44.105Z,2.07
2018-07-05T23:30:58.500Z,2.10
2018-07-05T23:36:12.861Z,2.40
2018-07-05T23:41:27.450Z,2.23
2018-07-05T23:46:41.921Z,2.70
2018-07-05T23:51:56.459Z,2.80
2018-07-05T23:57:10.945Z,3.37
